Olivebridge, NY (12461)

6:49 PM EST on December 02, 2016 (GMT -0500)
Esopus Bidg | | Change Station

Elev 459 ft 41.93 °N, 74.20 °W | Updated 15 seconds ago

Mostly Cloudy
Mostly Cloudy
40.7 °F
Feels Like 41 °F
N
3.0
Wind Variable Wind from WNW
Gusts 4.0 mph

Today
High -- | Low -- °F
--% Chance of Precip.
Yesterday
High -- | Low -- °F
Precip. -- in
Pressure 29.86 in
Visibility 10.0 miles
Clouds Mostly Cloudy 8000 ft
Windchill 41 °F
Dew Point 33 °F
Humidity 74%
Rainfall 0.03 in
Snow Depth Not available.
7:06 AM 4:26 PM
Waxing Crescent, 11% visible
METAR KPOU 022253Z 28012KT 10SM BKN080 06/M02 A2986 RMK AO2 WSHFT 2155 RAB21E31 SLP109 P0000 T00611017
Pressure 29.86 in
Visibility 10.0 miles
Clouds Mostly Cloudy 8000 ft
Windchill 41 °F
Dew Point 33 °F
Humidity 74%
Rainfall 0.03 in
Snow Depth Not available.
7:06 AM 4:26 PM
Waxing Crescent, 11% visible
METAR KPOU 022253Z 28012KT 10SM BKN080 06/M02 A2986 RMK AO2 WSHFT 2155 RAB21E31 SLP109 P0000 T00611017

10-Day Weather Forecast

Almanac

Astronomy

Dec. 02, 2016 Rise Set
Actual Time
Civil Twilight
Nautical Twilight
Astronomical Twilight
Moon
Length of Visible Light
Length of Day
Tomorrow will be .
, % of the Moon is Illuminated

Today's Extremes

State Highs State Lows

Community

WunderPhotos

Upload Photos

1,955,369 photos uploaded!

WunderBlog® & News

Nearby

Air Quality

  Air Quality AQ Index Pollutant
Not available.

Snow Depth

Station Depth Elevation

Earthquake Activity

City Distance Mag. Time & Date
Minimum magnitude displayed is 2.5.

Coastal Water Temperatures

Place Temperature

Stations

Nearby Weather Stations

Station Location Temp. Windchill Dew Point Humidity Wind Precip. Elev Updated Type
                   

Watches & Warnings

There are currently no watches in effect.